Weather at Moore County Airport

Public forecast

Using degrees Fahrenheit for public forecast. Weather courtesy of forecast.io.

Current aviation weather report (METAR) for Moore County Airport

2024/07/22 13:15 (retrieved 22 minutes ago)

KDUX 221315Z AUTO 32005KT 5SM BR CLR 16/14 A3021 RMK AO2 T01620143

Closest aviation forecast (TAF) to Moore County Airport

Closest forecast is Dalhart Municipal Airport, 27.8 nm (51.4 km) WNW.

2024/07/22 12:22 (retrieved 1 hour ago)

TAF KDHT 221120Z 2212/2312 VRB05KT P6SM BKN100 FM221800 16006KT P6SM VCSH BKN050